Madre Lucia — EBYY — position and weather

sailwx.info

Track history (hours):
 
Tides and Currents Weather Stations Pressure Air Temp Water Temp Dewpoint Dewpoint Depression Visibility Wind Speed Wind Dir Waves Ship Positions

Madre Lucia

Last reported at 2018-Apr-25 16:30 UTC. Time now 2018-Apr-25 16:31 UTC.
Position N 43°24' W 002°26'.

Length 30 m; draft 3.2 m.

Type: Fishing. MMSI: 224136470.

Date/timePositionNaut miles runAvg speedWind from/ knotsBaromVisibWave heightAir tempDewpointWater temp
2018-Apr-25 16:30N 43°24' W 002°26'4 1.0
2018-Apr-25 12:35N 43°20' W 002°24'110.3
2018-Apr-25 12:30N 43°20' W 002°24'510.3
2018-Apr-25 12:00N 43°24' W 002°19'510.2
2018-Apr-25 11:30N 43°27' W 002°14'510.5
2018-Apr-25 11:00N 43°31' W 002°08'1 2.9
2018-Apr-25 10:31N 43°32' W 002°08'0 0.7
2018-Apr-25 10:00N 43°32' W 002°08'0 0.3
2018-Apr-25 09:30N 43°32' W 002°08'1 2.0
2018-Apr-25 09:00N 43°33' W 002°09'1 2.2
2018-Apr-25 08:30N 43°34' W 002°10'0 0.4
2018-Apr-25 08:00N 43°34' W 002°10'3 5.2
2018-Apr-25 07:30N 43°31' W 002°12'2 3.9
2018-Apr-25 07:01N 43°30' W 002°14'0 0.3
2018-Apr-25 06:30N 43°31' W 002°14'1 1.1
2018-Apr-25 06:00N 43°31' W 002°15'5 9.4
2018-Apr-25 05:30N 43°33' W 002°21'5 9.9
2018-Apr-25 05:00N 43°34' W 002°27'5 9.7
2018-Apr-25 04:30N 43°33' W 002°34'5 9.5
2018-Apr-25 04:01N 43°32' W 002°40'2 3.7
2018-Apr-25 03:31N 43°33' W 002°42'4 7.3
2018-Apr-25 03:00N 43°33' W 002°37'0 0.8
2018-Apr-25 02:30N 43°34' W 002°36'4 8.2
2018-Apr-25 02:01N 43°34' W 002°31'2 4.5
2018-Apr-25 01:30N 43°35' W 002°28'0 0.2
2018-Apr-25 01:01N 43°35' W 002°28'0 0.2
2018-Apr-25 00:31N 43°34' W 002°28'1 2.8
2018-Apr-25 00:01N 43°35' W 002°30'2 3.7
2018-Apr-24 23:30N 43°35' W 002°32'3 6.4
2018-Apr-24 23:00N 43°35' W 002°36'0 0.3
2018-Apr-24 22:30N 43°35' W 002°36'0 0.4
2018-Apr-24 22:00N 43°35' W 002°36'0 0.4
2018-Apr-24 21:30N 43°35' W 002°37'2 4.4
2018-Apr-24 21:00N 43°36' W 002°34'0 0.5
2018-Apr-24 20:30N 43°37' W 002°34'0 0.6
2018-Apr-24 20:00N 43°37' W 002°34'0 0.6
2018-Apr-24 19:31N 43°37' W 002°34'0 0.5
2018-Apr-24 19:00N 43°37' W 002°34'3 5.0
2018-Apr-24 18:30N 43°37' W 002°38'2 4.4
2018-Apr-24 18:01N 43°37' W 002°35'3 5.6
2018-Apr-24 17:30N 43°34' W 002°33'2 3.7
2018-Apr-24 17:00N 43°35' W 002°31'1 2.3
2018-Apr-24 16:31N 43°35' W 002°33'0 0.4
2018-Apr-24 16:00N 43°35' W 002°33'0 0.3
2018-Apr-24 15:31N 43°35' W 002°33'1 2.5
2018-Apr-24 15:01N 43°35' W 002°35'4 7.1
2018-Apr-24 14:30N 43°33' W 002°39'5 9.9
2018-Apr-24 14:00N 43°34' W 002°46'5 9.9
2018-Apr-24 13:31N 43°32' W 002°52'5 9.9
2018-Apr-24 13:01N 43°31' W 002°59'5 9.8
2018-Apr-24 12:30N 43°30' W 003°05'5 9.9
2018-Apr-24 12:00N 43°28' W 003°12'5 9.6
2018-Apr-24 11:30N 43°27' W 003°18'5 9.6
2018-Apr-24 11:00N 43°26' W 003°25'0 0.1
2018-Apr-24 05:49N 43°25' W 003°25'3 9.4
2018-Apr-24 05:30N 43°27' W 003°21'4 8.9
2018-Apr-24 05:01N 43°27' W 003°15'4 8.6
2018-Apr-24 04:30N 43°28' W 003°09'4 8.5
2018-Apr-24 04:00N 43°29' W 003°04'4 8.3
2018-Apr-24 03:30N 43°30' W 002°58'4 8.3
2018-Apr-24 03:00N 43°31' W 002°52'4 8.4
2018-Apr-24 02:30N 43°31' W 002°47'4 8.5
2018-Apr-24 02:01N 43°32' W 002°41'4 7.9
2018-Apr-24 01:30N 43°33' W 002°36'0 0.4
2018-Apr-24 01:00N 43°33' W 002°35'0 0.1
2018-Apr-24 00:30N 43°33' W 002°35'0 0.2
2018-Apr-24 00:01N 43°33' W 002°35'0 0.3
2018-Apr-23 23:30N 43°33' W 002°35'0 0.6
2018-Apr-23 23:01N 43°33' W 002°35'0 0.2
2018-Apr-23 22:31N 43°33' W 002°35'0 0.1
2018-Apr-23 22:01N 43°33' W 002°35'0 0.1
2018-Apr-23 21:30N 43°33' W 002°35'0 0.3
2018-Apr-23 21:00N 43°33' W 002°34'0 0.4
2018-Apr-23 20:30N 43°33' W 002°34'0 0.5
2018-Apr-23 20:00N 43°33' W 002°34'2 3.0
2018-Apr-23 19:30N 43°35' W 002°35'4 7.8
2018-Apr-23 19:00N 43°33' W 002°30'1 2.4
2018-Apr-23 18:30N 43°32' W 002°29'0 0.3
2018-Apr-23 18:00N 43°32' W 002°29'0 0.2
2018-Apr-23 17:30N 43°32' W 002°29'2 5.0
2018-Apr-23 17:00N 43°30' W 002°31'5 9.8
2018-Apr-23 16:30N 43°26' W 002°27'5 9.9
2018-Apr-23 16:00N 43°21' W 002°25'2 0.7
2018-Apr-23 13:40N 43°20' W 002°25'210.3
2018-Apr-23 13:30N 43°21' W 002°24'510.2
2018-Apr-23 13:01N 43°26' W 002°23'5 9.7
2018-Apr-23 12:31N 43°31' W 002°22'1 2.2
2018-Apr-23 12:00N 43°32' W 002°23'0 0.3
2018-Apr-23 11:31N 43°32' W 002°23'0 0.2
2018-Apr-23 11:00N 43°32' W 002°23'0 0.1
2018-Apr-23 10:30N 43°32' W 002°23'3 5.5
2018-Apr-23 10:01N 43°31' W 002°19'610.9
2018-Apr-23 09:30N 43°31' W 002°12'510.9
2018-Apr-23 09:01N 43°32' W 002°04'510.7
2018-Apr-23 08:30N 43°33' W 001°57'4 7.2
2018-Apr-23 08:00N 43°30' W 001°58'3 6.7
2018-Apr-23 07:30N 43°28' W 002°02'4 7.1
2018-Apr-23 07:01N 43°28' W 002°07'2 3.7
2018-Apr-23 06:30N 43°27' W 002°09'0 0.6
2018-Apr-23 06:01N 43°27' W 002°09'0 0.8
2018-Apr-23 05:30N 43°28' W 002°09'2 3.6
2018-Apr-23 05:00N 43°28' W 002°12'4 7.8
2018-Apr-23 04:31N 43°28' W 002°17'4 8.0
2018-Apr-23 04:00N 43°28' W 002°23'4 8.1
2018-Apr-23 03:30N 43°29' W 002°28'4 7.8
2018-Apr-23 03:01N 43°30' W 002°33'4 7.7
2018-Apr-23 02:31N 43°30' W 002°39'4 7.8
2018-Apr-23 02:00N 43°30' W 002°44'4 8.1
2018-Apr-23 01:30N 43°30' W 002°50'4 8.2
2018-Apr-23 01:00N 43°30' W 002°55'4 8.1
2018-Apr-23 00:28N 43°30' W 003°01'4 8.4
2018-Apr-23 00:00N 43°30' W 003°07'4 8.3
2018-Apr-22 23:30N 43°29' W 003°12'4 8.1
2018-Apr-22 23:00N 43°28' W 003°18'4 8.1
2018-Apr-22 22:30N 43°27' W 003°23'  
2018-Apr-19 16:49N 43°30' W 002°18'5 1.6
2018-Apr-19 13:24N 43°25' W 002°22'410.8
2018-Apr-19 13:00N 43°29' W 002°20'5610.7
2018-Apr-19 07:45N 44°21' W 001°50'310.9
2018-Apr-19 07:30N 44°24' W 001°49'1110.7
2018-Apr-19 06:31N 44°34' W 001°44'013.0
2018-Apr-19 06:30N 44°34' W 001°44'5 9.1
2018-Apr-19 06:00N 44°38' W 001°41'0 0.6
2018-Apr-19 05:30N 44°38' W 001°41'0 0.4
2018-Apr-19 05:00N 44°38' W 001°40'0 0.4
2018-Apr-19 04:30N 44°38' W 001°40'1 1.8
2018-Apr-19 04:00N 44°38' W 001°42'2 4.5
2018-Apr-19 03:30N 44°40' W 001°44'1 1.4
2018-Apr-19 03:00N 44°39' W 001°45'3 5.1
2018-Apr-19 02:29N 44°39' W 001°48'0 0.2
2018-Apr-19 01:57N 44°39' W 001°48'0 0.4
2018-Apr-19 01:30N 44°39' W 001°49'7 0.4
2018-Apr-18 06:21N 44°33' W 001°51'1 0.6
2018-Apr-18 04:53N 44°33' W 001°51'0 0.1
2018-Apr-18 04:29N 44°33' W 001°51'7 3.9
2018-Apr-18 02:40N 44°26' W 001°50'1 9.2
2018-Apr-18 02:30N 44°25' W 001°48'4 6.5
2018-Apr-18 01:55N 44°25' W 001°43'1 1.8
2018-Apr-18 01:30N 44°26' W 001°42'1 1.6
2018-Apr-18 00:59N 44°26' W 001°41'2 4.7
2018-Apr-18 00:30N 44°28' W 001°43'3 6.7
2018-Apr-18 00:00N 44°30' W 001°47'2 4.6
2018-Apr-17 23:30N 44°28' W 001°49'40 1.6
2018-Apr-16 22:34N 43°48' W 001°51'0 0.4
2018-Apr-16 22:27N 43°48' W 001°51'0 0.4
2018-Apr-16 21:59N 43°48' W 001°50'0 0.3
2018-Apr-16 21:30N 43°48' W 001°50'36 2.2
2018-Apr-16 05:16N 43°27' W 002°31'2 7.9
2018-Apr-16 05:00N 43°28' W 002°34'4 8.0
2018-Apr-16 04:29N 43°28' W 002°39'  
Track history (hours):
 
Tides and Currents Weather Stations Pressure Air Temp Water Temp Dewpoint Dewpoint Depression Visibility Wind Speed Wind Dir Waves Ship Positions

Madre Lucia

Last reported at 2018-Apr-25 16:30 UTC. Time now 2018-Apr-25 16:31 UTC.
Position N 43°24' W 002°26'.

Length 30 m; draft 3.2 m.

Type: Fishing. MMSI: 224136470.

Date/timePositionNaut miles runAvg speedWind from/ knotsBaromVisibWave heightAir tempDewpointWater temp
2018-Apr-25 16:30N 43°24' W 002°26'4 1.0
2018-Apr-25 12:35N 43°20' W 002°24'110.3
2018-Apr-25 12:30N 43°20' W 002°24'510.3
2018-Apr-25 12:00N 43°24' W 002°19'510.2
2018-Apr-25 11:30N 43°27' W 002°14'510.5
2018-Apr-25 11:00N 43°31' W 002°08'1 2.9
2018-Apr-25 10:31N 43°32' W 002°08'0 0.7
2018-Apr-25 10:00N 43°32' W 002°08'0 0.3
2018-Apr-25 09:30N 43°32' W 002°08'1 2.0
2018-Apr-25 09:00N 43°33' W 002°09'1 2.2
2018-Apr-25 08:30N 43°34' W 002°10'0 0.4
2018-Apr-25 08:00N 43°34' W 002°10'3 5.2
2018-Apr-25 07:30N 43°31' W 002°12'2 3.9
2018-Apr-25 07:01N 43°30' W 002°14'0 0.3
2018-Apr-25 06:30N 43°31' W 002°14'1 1.1
2018-Apr-25 06:00N 43°31' W 002°15'5 9.4
2018-Apr-25 05:30N 43°33' W 002°21'5 9.9
2018-Apr-25 05:00N 43°34' W 002°27'5 9.7
2018-Apr-25 04:30N 43°33' W 002°34'5 9.5
2018-Apr-25 04:01N 43°32' W 002°40'2 3.7
2018-Apr-25 03:31N 43°33' W 002°42'4 7.3
2018-Apr-25 03:00N 43°33' W 002°37'0 0.8
2018-Apr-25 02:30N 43°34' W 002°36'4 8.2
2018-Apr-25 02:01N 43°34' W 002°31'2 4.5
2018-Apr-25 01:30N 43°35' W 002°28'0 0.2
2018-Apr-25 01:01N 43°35' W 002°28'0 0.2
2018-Apr-25 00:31N 43°34' W 002°28'1 2.8
2018-Apr-25 00:01N 43°35' W 002°30'2 3.7
2018-Apr-24 23:30N 43°35' W 002°32'3 6.4
2018-Apr-24 23:00N 43°35' W 002°36'0 0.3
2018-Apr-24 22:30N 43°35' W 002°36'0 0.4
2018-Apr-24 22:00N 43°35' W 002°36'0 0.4
2018-Apr-24 21:30N 43°35' W 002°37'2 4.4
2018-Apr-24 21:00N 43°36' W 002°34'0 0.5
2018-Apr-24 20:30N 43°37' W 002°34'0 0.6
2018-Apr-24 20:00N 43°37' W 002°34'0 0.6
2018-Apr-24 19:31N 43°37' W 002°34'0 0.5
2018-Apr-24 19:00N 43°37' W 002°34'3 5.0
2018-Apr-24 18:30N 43°37' W 002°38'2 4.4
2018-Apr-24 18:01N 43°37' W 002°35'3 5.6
2018-Apr-24 17:30N 43°34' W 002°33'2 3.7
2018-Apr-24 17:00N 43°35' W 002°31'1 2.3
2018-Apr-24 16:31N 43°35' W 002°33'0 0.4
2018-Apr-24 16:00N 43°35' W 002°33'0 0.3
2018-Apr-24 15:31N 43°35' W 002°33'1 2.5
2018-Apr-24 15:01N 43°35' W 002°35'4 7.1
2018-Apr-24 14:30N 43°33' W 002°39'5 9.9
2018-Apr-24 14:00N 43°34' W 002°46'5 9.9
2018-Apr-24 13:31N 43°32' W 002°52'5 9.9
2018-Apr-24 13:01N 43°31' W 002°59'5 9.8
2018-Apr-24 12:30N 43°30' W 003°05'5 9.9
2018-Apr-24 12:00N 43°28' W 003°12'5 9.6
2018-Apr-24 11:30N 43°27' W 003°18'5 9.6
2018-Apr-24 11:00N 43°26' W 003°25'0 0.1
2018-Apr-24 05:49N 43°25' W 003°25'3 9.4
2018-Apr-24 05:30N 43°27' W 003°21'4 8.9
2018-Apr-24 05:01N 43°27' W 003°15'4 8.6
2018-Apr-24 04:30N 43°28' W 003°09'4 8.5
2018-Apr-24 04:00N 43°29' W 003°04'4 8.3
2018-Apr-24 03:30N 43°30' W 002°58'4 8.3
2018-Apr-24 03:00N 43°31' W 002°52'4 8.4
2018-Apr-24 02:30N 43°31' W 002°47'4 8.5
2018-Apr-24 02:01N 43°32' W 002°41'4 7.9
2018-Apr-24 01:30N 43°33' W 002°36'0 0.4
2018-Apr-24 01:00N 43°33' W 002°35'0 0.1
2018-Apr-24 00:30N 43°33' W 002°35'0 0.2
2018-Apr-24 00:01N 43°33' W 002°35'0 0.3
2018-Apr-23 23:30N 43°33' W 002°35'0 0.6
2018-Apr-23 23:01N 43°33' W 002°35'0 0.2
2018-Apr-23 22:31N 43°33' W 002°35'0 0.1
2018-Apr-23 22:01N 43°33' W 002°35'0 0.1
2018-Apr-23 21:30N 43°33' W 002°35'0 0.3
2018-Apr-23 21:00N 43°33' W 002°34'0 0.4
2018-Apr-23 20:30N 43°33' W 002°34'0 0.5
2018-Apr-23 20:00N 43°33' W 002°34'2 3.0
2018-Apr-23 19:30N 43°35' W 002°35'4 7.8
2018-Apr-23 19:00N 43°33' W 002°30'1 2.4
2018-Apr-23 18:30N 43°32' W 002°29'0 0.3
2018-Apr-23 18:00N 43°32' W 002°29'0 0.2
2018-Apr-23 17:30N 43°32' W 002°29'2 5.0
2018-Apr-23 17:00N 43°30' W 002°31'5 9.8
2018-Apr-23 16:30N 43°26' W 002°27'5 9.9
2018-Apr-23 16:00N 43°21' W 002°25'2 0.7
2018-Apr-23 13:40N 43°20' W 002°25'210.3
2018-Apr-23 13:30N 43°21' W 002°24'510.2
2018-Apr-23 13:01N 43°26' W 002°23'5 9.7
2018-Apr-23 12:31N 43°31' W 002°22'1 2.2
2018-Apr-23 12:00N 43°32' W 002°23'0 0.3
2018-Apr-23 11:31N 43°32' W 002°23'0 0.2
2018-Apr-23 11:00N 43°32' W 002°23'0 0.1
2018-Apr-23 10:30N 43°32' W 002°23'3 5.5
2018-Apr-23 10:01N 43°31' W 002°19'610.9
2018-Apr-23 09:30N 43°31' W 002°12'510.9
2018-Apr-23 09:01N 43°32' W 002°04'510.7
2018-Apr-23 08:30N 43°33' W 001°57'4 7.2
2018-Apr-23 08:00N 43°30' W 001°58'3 6.7
2018-Apr-23 07:30N 43°28' W 002°02'4 7.1
2018-Apr-23 07:01N 43°28' W 002°07'2 3.7
2018-Apr-23 06:30N 43°27' W 002°09'0 0.6
2018-Apr-23 06:01N 43°27' W 002°09'0 0.8
2018-Apr-23 05:30N 43°28' W 002°09'2 3.6
2018-Apr-23 05:00N 43°28' W 002°12'4 7.8
2018-Apr-23 04:31N 43°28' W 002°17'4 8.0
2018-Apr-23 04:00N 43°28' W 002°23'4 8.1
2018-Apr-23 03:30N 43°29' W 002°28'4 7.8
2018-Apr-23 03:01N 43°30' W 002°33'4 7.7
2018-Apr-23 02:31N 43°30' W 002°39'4 7.8
2018-Apr-23 02:00N 43°30' W 002°44'4 8.1
2018-Apr-23 01:30N 43°30' W 002°50'4 8.2
2018-Apr-23 01:00N 43°30' W 002°55'4 8.1
2018-Apr-23 00:28N 43°30' W 003°01'4 8.4
2018-Apr-23 00:00N 43°30' W 003°07'4 8.3
2018-Apr-22 23:30N 43°29' W 003°12'4 8.1
2018-Apr-22 23:00N 43°28' W 003°18'4 8.1
2018-Apr-22 22:30N 43°27' W 003°23'  
2018-Apr-19 16:49N 43°30' W 002°18'5 1.6
2018-Apr-19 13:24N 43°25' W 002°22'410.8
2018-Apr-19 13:00N 43°29' W 002°20'5610.7
2018-Apr-19 07:45N 44°21' W 001°50'310.9
2018-Apr-19 07:30N 44°24' W 001°49'1110.7
2018-Apr-19 06:31N 44°34' W 001°44'013.0
2018-Apr-19 06:30N 44°34' W 001°44'5 9.1
2018-Apr-19 06:00N 44°38' W 001°41'0 0.6
2018-Apr-19 05:30N 44°38' W 001°41'0 0.4
2018-Apr-19 05:00N 44°38' W 001°40'0 0.4
2018-Apr-19 04:30N 44°38' W 001°40'1 1.8
2018-Apr-19 04:00N 44°38' W 001°42'2 4.5
2018-Apr-19 03:30N 44°40' W 001°44'1 1.4
2018-Apr-19 03:00N 44°39' W 001°45'3 5.1
2018-Apr-19 02:29N 44°39' W 001°48'0 0.2
2018-Apr-19 01:57N 44°39' W 001°48'0 0.4
2018-Apr-19 01:30N 44°39' W 001°49'7 0.4
2018-Apr-18 06:21N 44°33' W 001°51'1 0.6
2018-Apr-18 04:53N 44°33' W 001°51'0 0.1
2018-Apr-18 04:29N 44°33' W 001°51'7 3.9
2018-Apr-18 02:40N 44°26' W 001°50'1 9.2
2018-Apr-18 02:30N 44°25' W 001°48'4 6.5
2018-Apr-18 01:55N 44°25' W 001°43'1 1.8
2018-Apr-18 01:30N 44°26' W 001°42'1 1.6
2018-Apr-18 00:59N 44°26' W 001°41'2 4.7
2018-Apr-18 00:30N 44°28' W 001°43'3 6.7
2018-Apr-18 00:00N 44°30' W 001°47'2 4.6
2018-Apr-17 23:30N 44°28' W 001°49'40 1.6
2018-Apr-16 22:34N 43°48' W 001°51'0 0.4
2018-Apr-16 22:27N 43°48' W 001°51'0 0.4
2018-Apr-16 21:59N 43°48' W 001°50'0 0.3
2018-Apr-16 21:30N 43°48' W 001°50'36 2.2
2018-Apr-16 05:16N 43°27' W 002°31'2 7.9
2018-Apr-16 05:00N 43°28' W 002°34'4 8.0
2018-Apr-16 04:29N 43°28' W 002°39'  

Dump ship's entire track history